createdAt,value
2023-05-19T00:00:53.450Z,33.7638
2023-05-19T00:01:55.244Z,33.7554
2023-05-19T00:02:57.081Z,33.7438
2023-05-19T00:03:58.616Z,33.7638
2023-05-19T00:05:00.394Z,33.7785
2023-05-19T00:06:02.161Z,33.7862
2023-05-19T00:07:03.814Z,33.7915
2023-05-19T00:08:05.533Z,33.8138
2023-05-19T00:09:07.275Z,33.8215
2023-05-19T00:10:09.004Z,33.8223
2023-05-19T00:11:10.729Z,33.8200
2023-05-19T00:12:12.420Z,33.8223
2023-05-19T00:13:14.181Z,33.8246
2023-05-19T00:14:15.871Z,33.8277
2023-05-19T00:15:17.618Z,33.8362
2023-05-19T00:16:19.429Z,33.8477
2023-05-19T00:17:21.048Z,33.8369
2023-05-19T00:18:22.861Z,33.8346
2023-05-19T00:19:25.026Z,33.8569
2023-05-19T00:20:26.239Z,33.8777
2023-05-19T00:21:27.974Z,33.8946
2023-05-19T00:22:29.685Z,33.8931
2023-05-19T00:23:31.417Z,33.9031
2023-05-19T00:24:33.152Z,33.9215
2023-05-19T00:25:34.873Z,33.9315
2023-05-19T00:26:36.583Z,33.9408
2023-05-19T00:27:38.349Z,33.9369
2023-05-19T00:28:40.093Z,33.9477
2023-05-19T00:29:41.780Z,33.9515
2023-05-19T00:30:43.518Z,33.9431
2023-05-19T00:31:45.292Z,33.9454
2023-05-19T00:32:46.970Z,33.9515
2023-05-19T00:33:48.705Z,33.9423
2023-05-19T00:34:50.413Z,33.9392
2023-05-19T00:35:52.143Z,33.9431
2023-05-19T00:36:53.849Z,33.9346
2023-05-19T00:37:55.613Z,33.9377
2023-05-19T00:38:57.320Z,33.9385
2023-05-19T00:39:59.043Z,33.9362
2023-05-19T00:41:00.770Z,33.9492
2023-05-19T00:42:02.475Z,33.9408
2023-05-19T00:43:04.204Z,33.9431
2023-05-19T00:44:05.964Z,33.9477
2023-05-19T00:45:07.684Z,33.9508
2023-05-19T00:46:09.412Z,33.9546
2023-05-19T00:47:11.142Z,33.9431
2023-05-19T00:48:12.853Z,33.9415
2023-05-19T00:49:14.570Z,33.9354
2023-05-19T00:50:16.312Z,33.9315
2023-05-19T00:51:18.033Z,33.9162
2023-05-19T00:52:19.740Z,33.9254
2023-05-19T00:53:21.480Z,33.9192
2023-05-19T00:54:23.200Z,33.9354
2023-05-19T00:55:24.930Z,33.9462
2023-05-19T00:56:26.663Z,33.9392
2023-05-19T00:57:28.370Z,33.9485
2023-05-19T00:58:30.119Z,33.9408
2023-05-19T00:59:31.851Z,33.9600
2023-05-19T01:00:33.870Z,33.9546
2023-05-19T01:01:35.381Z,33.9523
2023-05-19T01:02:37.060Z,33.9485
2023-05-19T01:03:38.793Z,33.9615
2023-05-19T01:04:40.470Z,33.9738
2023-05-19T01:05:42.200Z,34.0054
2023-05-19T01:06:43.917Z,34.0192
2023-05-19T01:07:45.650Z,34.0431
2023-05-19T01:08:47.361Z,34.0615
2023-05-19T01:09:49.101Z,34.0638
2023-05-19T01:10:50.825Z,34.1046
2023-05-19T01:11:52.545Z,34.1015
2023-05-19T01:12:54.259Z,34.1292
2023-05-19T01:13:56.015Z,34.1192
2023-05-19T01:14:57.746Z,34.1477
2023-05-19T01:15:59.471Z,34.1685
2023-05-19T01:17:01.189Z,34.1838
2023-05-19T01:18:02.952Z,34.2077
2023-05-19T01:19:04.647Z,34.2400
2023-05-19T01:20:06.427Z,34.2346
2023-05-19T01:21:08.097Z,34.2615
2023-05-19T01:22:09.798Z,34.2631
2023-05-19T01:23:11.528Z,34.2746
2023-05-19T01:24:13.274Z,34.2885
2023-05-19T01:25:15.016Z,34.2923
2023-05-19T01:26:16.724Z,34.2969
2023-05-19T01:27:18.430Z,34.2877
2023-05-19T01:28:20.168Z,34.2869
2023-05-19T01:29:21.873Z,34.2831
2023-05-19T01:30:23.657Z,34.2638
2023-05-19T01:31:25.358Z,34.2669
2023-05-19T01:32:27.135Z,34.2531
2023-05-19T01:33:28.788Z,34.2469
2023-05-19T01:34:30.512Z,34.2523
2023-05-19T01:35:32.226Z,34.2477
2023-05-19T01:36:33.963Z,34.2423
2023-05-19T01:37:35.668Z,34.2485
2023-05-19T01:38:37.423Z,34.2469
2023-05-19T01:39:39.111Z,34.2392
2023-05-19T01:40:40.880Z,34.2238
2023-05-19T01:41:42.602Z,34.2262
2023-05-19T01:42:44.296Z,34.2208
2023-05-19T01:43:46.049Z,34.2200
2023-05-19T01:44:47.767Z,34.2115
2023-05-19T01:45:49.525Z,34.2046
2023-05-19T01:46:51.198Z,34.2215
2023-05-19T01:47:52.970Z,34.2377
2023-05-19T01:48:54.677Z,34.2462
2023-05-19T01:49:56.384Z,34.2277
2023-05-19T01:50:58.145Z,34.2238
2023-05-19T01:51:59.830Z,34.2200
2023-05-19T01:53:01.564Z,34.1969
2023-05-19T01:54:03.317Z,34.1962
2023-05-19T01:55:05.026Z,34.1946
2023-05-19T01:56:06.897Z,34.2062
2023-05-19T01:57:08.490Z,34.1908
2023-05-19T01:58:10.240Z,34.2046
2023-05-19T01:59:11.924Z,34.2138
2023-05-19T02:00:13.671Z,34.1992
2023-05-19T02:01:15.410Z,34.1938
2023-05-19T02:02:17.121Z,34.1915
2023-05-19T02:03:18.820Z,34.1962
2023-05-19T02:04:20.590Z,34.1923
2023-05-19T02:05:22.292Z,34.1823
2023-05-19T02:06:24.048Z,34.1838
2023-05-19T02:07:25.733Z,34.1923
2023-05-19T02:08:27.474Z,34.1815
2023-05-19T02:09:29.189Z,34.1831
2023-05-19T02:10:31.096Z,34.1962
2023-05-19T02:11:32.671Z,34.1931
2023-05-19T02:12:34.350Z,34.1808
2023-05-19T02:13:36.107Z,34.1823
2023-05-19T02:14:37.798Z,34.1715
2023-05-19T02:15:39.587Z,34.1631
2023-05-19T02:16:41.262Z,34.1631
2023-05-19T02:17:42.989Z,34.1523
2023-05-19T02:18:44.710Z,34.1638
2023-05-19T02:19:46.425Z,34.1592
2023-05-19T02:20:48.161Z,34.1677
2023-05-19T02:21:49.899Z,34.1708
2023-05-19T02:22:51.592Z,34.1631
2023-05-19T02:23:53.334Z,34.1623
2023-05-19T02:24:55.034Z,34.1723
2023-05-19T02:25:56.766Z,34.1815
2023-05-19T02:26:58.502Z,34.1777
2023-05-19T02:28:00.213Z,34.1954
2023-05-19T02:29:01.975Z,34.1915
2023-05-19T02:30:03.663Z,34.1915
2023-05-19T02:31:05.405Z,34.1815
2023-05-19T02:32:07.185Z,34.1846
2023-05-19T02:33:08.900Z,34.1962
2023-05-19T02:34:10.564Z,34.1869
2023-05-19T02:35:12.314Z,34.1892
2023-05-19T02:36:14.020Z,34.1923
2023-05-19T02:37:15.782Z,34.1954
2023-05-19T02:38:17.483Z,34.1877
2023-05-19T02:39:19.203Z,34.1862
2023-05-19T02:40:20.930Z,34.1923
2023-05-19T02:41:22.655Z,34.2023
2023-05-19T02:42:24.403Z,34.2015
2023-05-19T02:43:26.102Z,34.2069
2023-05-19T02:44:27.810Z,34.2138
2023-05-19T02:45:29.535Z,34.2085
2023-05-19T02:46:31.324Z,34.2162
2023-05-19T02:47:34.717Z,34.2162
2023-05-19T02:48:34.707Z,34.2223
2023-05-19T02:49:36.487Z,34.2215
2023-05-19T02:50:38.174Z,34.2223
2023-05-19T02:51:39.907Z,34.2246
2023-05-19T02:52:41.610Z,34.2200
2023-05-19T02:53:43.338Z,34.2146
2023-05-19T02:54:45.092Z,34.2200
2023-05-19T02:55:46.785Z,34.2277
2023-05-19T02:56:48.506Z,34.2438
2023-05-19T02:57:50.252Z,34.2554
2023-05-19T02:58:51.958Z,34.2569
2023-05-19T02:59:53.680Z,34.2538
2023-05-19T03:00:55.430Z,34.2638
2023-05-19T03:01:57.188Z,34.2685
2023-05-19T03:02:58.905Z,34.2708
2023-05-19T03:04:00.729Z,34.2808
2023-05-19T03:05:02.319Z,34.3100
2023-05-19T03:06:04.020Z,34.3254
2023-05-19T03:07:05.748Z,34.3262
2023-05-19T03:08:07.495Z,34.3315
2023-05-19T03:09:09.191Z,34.3215
2023-05-19T03:10:10.912Z,34.3262
2023-05-19T03:11:12.652Z,34.3377
2023-05-19T03:12:14.359Z,34.3446
2023-05-19T03:13:16.111Z,34.3415
2023-05-19T03:14:17.821Z,34.3469
2023-05-19T03:15:19.522Z,34.3508
2023-05-19T03:16:21.331Z,34.3608
2023-05-19T03:17:23.062Z,34.3654
2023-05-19T03:18:24.838Z,34.3523
2023-05-19T03:19:26.662Z,34.3615
2023-05-19T03:20:28.145Z,34.3485
2023-05-19T03:21:29.872Z,34.3638
2023-05-19T03:22:31.622Z,34.3531
2023-05-19T03:23:33.345Z,34.3523
2023-05-19T03:24:35.041Z,34.3692
2023-05-19T03:25:36.795Z,34.3669
2023-05-19T03:26:38.496Z,34.3723
2023-05-19T03:27:40.244Z,34.3662
2023-05-19T03:28:41.972Z,34.3592
2023-05-19T03:29:43.688Z,34.3577
2023-05-19T03:30:45.405Z,34.3600
2023-05-19T03:31:47.153Z,34.3546
2023-05-19T03:32:48.985Z,34.3623
2023-05-19T03:33:50.598Z,34.3662
2023-05-19T03:34:52.318Z,34.3731
2023-05-19T03:35:54.032Z,34.3785
2023-05-19T03:36:55.781Z,34.3854
2023-05-19T03:37:57.473Z,34.3777
2023-05-19T03:38:59.196Z,34.3792
2023-05-19T03:40:00.945Z,34.3869
2023-05-19T03:41:02.673Z,34.4154
2023-05-19T03:42:04.399Z,34.3954
2023-05-19T03:43:06.121Z,34.3931
2023-05-19T03:44:07.855Z,34.3931
2023-05-19T03:45:09.561Z,34.3969
2023-05-19T03:46:11.356Z,34.3954
2023-05-19T03:47:13.032Z,34.3931
2023-05-19T03:48:14.749Z,34.3869
2023-05-19T03:49:16.494Z,34.4031
2023-05-19T03:50:18.207Z,34.4092
2023-05-19T03:51:19.915Z,34.4000
2023-05-19T03:52:21.631Z,34.4046
2023-05-19T03:53:23.490Z,34.4131
2023-05-19T03:54:25.217Z,34.4154
2023-05-19T03:55:26.913Z,34.4115
2023-05-19T03:56:28.670Z,34.4200
2023-05-19T03:57:30.380Z,34.4338
2023-05-19T03:58:32.077Z,34.4323
2023-05-19T03:59:33.831Z,34.4369
2023-05-19T04:00:35.773Z,34.4446
2023-05-19T04:01:37.296Z,34.4585
2023-05-19T04:02:39.098Z,34.4608
2023-05-19T04:03:40.809Z,34.4577
2023-05-19T04:04:42.512Z,34.4492
2023-05-19T04:05:44.216Z,34.4469
2023-05-19T04:06:45.930Z,34.4585
2023-05-19T04:07:47.626Z,34.4677
2023-05-19T04:08:49.357Z,34.4700
2023-05-19T04:09:51.088Z,34.4623
2023-05-19T04:10:52.833Z,34.4754
2023-05-19T04:11:54.569Z,34.4808
2023-05-19T04:12:56.264Z,34.4777
2023-05-19T04:13:58.014Z,34.4800
2023-05-19T04:14:59.758Z,34.5023
2023-05-19T04:16:01.481Z,34.4900
2023-05-19T04:17:03.198Z,34.5038
2023-05-19T04:18:04.944Z,34.5169
2023-05-19T04:19:06.719Z,34.5123
2023-05-19T04:20:08.371Z,34.5077
2023-05-19T04:21:10.113Z,34.5169
2023-05-19T04:22:11.810Z,34.5369
2023-05-19T04:23:13.548Z,34.5423
2023-05-19T04:24:15.263Z,34.5546
2023-05-19T04:25:17.058Z,34.5577
2023-05-19T04:26:18.719Z,34.5662
2023-05-19T04:27:20.467Z,34.5785
2023-05-19T04:28:22.184Z,34.5892
2023-05-19T04:29:23.917Z,34.6031
2023-05-19T04:30:25.634Z,34.6077
2023-05-19T04:31:27.353Z,34.6392
2023-05-19T04:32:29.123Z,34.6438
2023-05-19T04:33:30.822Z,34.6631
2023-05-19T04:34:32.559Z,34.6585
2023-05-19T04:35:34.292Z,34.6823
2023-05-19T04:36:35.973Z,34.6977
2023-05-19T04:37:37.694Z,34.7038
2023-05-19T04:38:39.427Z,34.7169
2023-05-19T04:39:41.180Z,34.7185
2023-05-19T04:40:42.911Z,34.7215
2023-05-19T04:41:44.623Z,34.7415
2023-05-19T04:42:46.327Z,34.7638
2023-05-19T04:43:48.080Z,34.7777
2023-05-19T04:44:49.782Z,34.8085
2023-05-19T04:45:51.553Z,34.8223
2023-05-19T04:46:53.306Z,34.8369
2023-05-19T04:47:55.009Z,34.8523
2023-05-19T04:48:56.725Z,34.8600
2023-05-19T04:49:58.411Z,34.8777
2023-05-19T04:51:00.154Z,34.8646
2023-05-19T04:52:01.868Z,34.8577
2023-05-19T04:53:03.622Z,34.8562
2023-05-19T04:54:05.338Z,34.8608
2023-05-19T04:55:07.049Z,34.8685
2023-05-19T04:56:08.783Z,34.8585
2023-05-19T04:57:10.520Z,34.8469
2023-05-19T04:58:12.253Z,34.8408
2023-05-19T04:59:13.972Z,34.8292
2023-05-19T05:00:15.699Z,34.8446
2023-05-19T05:01:17.444Z,34.8423
2023-05-19T05:02:19.224Z,34.8400
2023-05-19T05:03:20.972Z,34.8246
2023-05-19T05:04:22.657Z,34.8300
2023-05-19T05:05:24.337Z,34.8277
2023-05-19T05:06:26.037Z,34.8131
2023-05-19T05:07:28.548Z,34.8200
2023-05-19T05:08:29.483Z,34.8238
2023-05-19T05:09:31.224Z,34.8138
2023-05-19T05:10:33.108Z,34.8092
2023-05-19T05:11:34.682Z,34.7900
2023-05-19T05:12:36.410Z,34.7638
2023-05-19T05:13:38.130Z,34.7654
2023-05-19T05:14:39.828Z,34.7792
2023-05-19T05:15:41.555Z,34.7685
2023-05-19T05:16:43.491Z,34.7700
2023-05-19T05:17:45.056Z,34.7546
2023-05-19T05:18:46.770Z,34.7338
2023-05-19T05:19:48.487Z,34.7277
2023-05-19T05:20:50.214Z,34.7377
2023-05-19T05:21:52.328Z,34.7531
2023-05-19T05:22:53.646Z,34.7538
2023-05-19T05:23:55.373Z,34.7462
2023-05-19T05:24:57.113Z,34.7592
2023-05-19T05:25:58.841Z,34.7500
2023-05-19T05:27:00.602Z,34.7315
2023-05-19T05:28:02.270Z,34.7354
2023-05-19T05:29:03.998Z,34.7254
2023-05-19T05:30:05.714Z,34.7308
2023-05-19T05:31:07.518Z,34.7231
2023-05-19T05:32:09.256Z,34.6923
2023-05-19T05:33:10.955Z,34.6877
2023-05-19T05:34:12.619Z,34.6885
2023-05-19T05:35:14.350Z,34.6723
2023-05-19T05:36:16.096Z,34.6492
2023-05-19T05:37:17.835Z,34.6508
2023-05-19T05:38:19.547Z,34.6562
2023-05-19T05:39:21.266Z,34.6831
2023-05-19T05:40:22.978Z,34.6746
2023-05-19T05:41:24.725Z,34.6815
2023-05-19T05:42:28.932Z,34.6623
2023-05-19T05:43:28.172Z,34.6331
2023-05-19T05:44:29.894Z,34.6123
2023-05-19T05:45:31.913Z,34.6069
2023-05-19T05:46:33.478Z,34.5831
2023-05-19T05:47:35.096Z,34.5585
2023-05-19T05:48:36.793Z,34.5346
2023-05-19T05:49:38.536Z,34.5331
2023-05-19T05:50:40.240Z,34.5531
2023-05-19T05:51:46.417Z,34.5515
2023-05-19T05:52:43.706Z,34.5423
2023-05-19T05:53:45.441Z,34.5508
2023-05-19T05:54:47.144Z,34.5515
2023-05-19T05:55:48.867Z,34.5485
2023-05-19T05:56:50.600Z,34.5569
2023-05-19T05:57:52.350Z,34.5531
2023-05-19T05:58:54.070Z,34.5354
2023-05-19T05:59:55.789Z,34.5285
2023-05-19T06:00:57.500Z,34.5254
2023-05-19T06:01:59.228Z,34.5154
2023-05-19T06:03:01.134Z,34.5162
2023-05-19T06:04:02.706Z,34.5108
2023-05-19T06:05:04.461Z,34.5092
2023-05-19T06:06:06.148Z,34.5000
2023-05-19T06:07:07.889Z,34.4977
2023-05-19T06:08:09.630Z,34.5046
2023-05-19T06:09:11.303Z,34.5062
2023-05-19T06:10:13.051Z,34.4908
2023-05-19T06:11:14.803Z,34.4969
2023-05-19T06:12:16.515Z,34.4838
2023-05-19T06:13:18.261Z,34.5031
2023-05-19T06:14:19.969Z,34.4885
2023-05-19T06:15:21.670Z,34.4677
2023-05-19T06:16:23.444Z,34.4385
2023-05-19T06:17:25.257Z,34.4292
2023-05-19T06:18:26.903Z,34.4138
2023-05-19T06:19:28.707Z,34.3985
2023-05-19T06:20:30.474Z,34.3846
2023-05-19T06:21:32.021Z,34.3662
2023-05-19T06:22:33.769Z,34.3677
2023-05-19T06:23:35.505Z,34.3554
2023-05-19T06:24:39.356Z,34.3415
2023-05-19T06:25:38.948Z,34.3208
2023-05-19T06:26:40.671Z,34.3177
2023-05-19T06:27:42.382Z,34.3108
2023-05-19T06:28:44.111Z,34.3169
2023-05-19T06:29:45.827Z,34.3323
2023-05-19T06:30:47.573Z,34.3415
2023-05-19T06:31:49.398Z,34.3600
2023-05-19T06:32:51.111Z,34.3762
2023-05-19T06:33:52.761Z,34.4031
2023-05-19T06:34:54.485Z,34.3977
2023-05-19T06:35:56.189Z,34.3931
2023-05-19T06:36:57.939Z,34.3938
2023-05-19T06:37:59.671Z,34.3954
2023-05-19T06:39:02.677Z,34.3892
2023-05-19T06:40:03.103Z,34.4092
2023-05-19T06:41:04.832Z,34.4123
2023-05-19T06:42:06.587Z,34.4185
2023-05-19T06:43:08.304Z,34.4146
2023-05-19T06:44:10.069Z,34.3862
2023-05-19T06:45:11.764Z,34.3831
2023-05-19T06:46:13.556Z,34.3838
2023-05-19T06:47:15.243Z,34.3754
2023-05-19T06:48:17.015Z,34.3708
2023-05-19T06:49:18.650Z,34.3785
2023-05-19T06:50:20.404Z,34.3677
2023-05-19T06:51:22.124Z,34.3615
2023-05-19T06:52:23.883Z,34.3700
2023-05-19T06:53:25.565Z,34.3885
2023-05-19T06:54:27.305Z,34.3954
2023-05-19T06:55:29.027Z,34.4015
2023-05-19T06:56:30.780Z,34.4138
2023-05-19T06:57:32.492Z,34.4169
2023-05-19T06:58:34.201Z,34.4185
2023-05-19T06:59:35.936Z,34.4285
2023-05-19T07:00:37.706Z,34.4269
2023-05-19T07:01:39.413Z,34.4369
2023-05-19T07:02:41.187Z,34.4554
2023-05-19T07:03:42.895Z,34.4692
2023-05-19T07:04:44.605Z,34.4823
2023-05-19T07:05:47.167Z,34.5031
2023-05-19T07:06:48.028Z,34.5146
2023-05-19T07:07:49.767Z,34.5138
2023-05-19T07:08:51.485Z,34.5185
2023-05-19T07:09:53.236Z,34.5292
2023-05-19T07:10:54.957Z,34.5300
2023-05-19T07:11:56.685Z,34.5238
2023-05-19T07:12:58.398Z,34.5215
2023-05-19T07:14:00.173Z,34.5169
2023-05-19T07:15:02.037Z,34.5192
2023-05-19T07:16:03.625Z,34.5062
2023-05-19T07:17:05.325Z,34.5085
2023-05-19T07:18:07.075Z,34.5108
2023-05-19T07:19:08.822Z,34.5000
2023-05-19T07:20:10.540Z,34.4885
2023-05-19T07:21:12.215Z,34.4769
2023-05-19T07:22:13.950Z,34.4785
2023-05-19T07:23:17.393Z,34.4638
2023-05-19T07:24:17.429Z,34.4377
2023-05-19T07:25:19.146Z,34.4292
2023-05-19T07:26:20.894Z,34.4154
2023-05-19T07:27:22.618Z,34.4131
2023-05-19T07:28:24.316Z,34.4054
2023-05-19T07:29:26.070Z,34.4215
2023-05-19T07:30:27.811Z,34.4146
2023-05-19T07:31:29.574Z,34.4000
2023-05-19T07:32:31.298Z,34.3954
2023-05-19T07:33:32.965Z,34.3946
2023-05-19T07:34:34.689Z,34.3800
2023-05-19T07:35:36.441Z,34.3777
2023-05-19T07:36:38.158Z,34.3762
2023-05-19T07:37:39.892Z,34.3808
2023-05-19T07:38:41.663Z,34.3915
2023-05-19T07:39:43.326Z,34.3923
2023-05-19T07:40:45.059Z,34.3915
2023-05-19T07:41:46.783Z,34.3900
2023-05-19T07:42:48.505Z,34.3700
2023-05-19T07:43:50.262Z,34.3700
2023-05-19T07:44:51.970Z,34.3669
2023-05-19T07:45:53.781Z,34.3877
2023-05-19T07:46:55.444Z,34.4069
2023-05-19T07:47:57.220Z,34.4123
2023-05-19T07:48:58.926Z,34.4223
2023-05-19T07:50:00.612Z,34.4062
2023-05-19T07:51:02.387Z,34.4077
2023-05-19T07:52:04.069Z,34.4169
2023-05-19T07:53:05.806Z,34.4177
2023-05-19T07:54:07.529Z,34.4269
2023-05-19T07:55:09.265Z,34.4238
2023-05-19T07:56:11.115Z,34.4238
2023-05-19T07:57:12.790Z,34.4177
2023-05-19T07:58:14.504Z,34.4062
2023-05-19T07:59:16.265Z,34.4085
2023-05-19T08:00:17.981Z,34.4238
2023-05-19T08:01:19.846Z,34.4292
2023-05-19T08:02:21.458Z,34.4285
2023-05-19T08:03:23.295Z,34.4285
2023-05-19T08:04:24.897Z,34.4338
2023-05-19T08:05:26.643Z,34.4423
2023-05-19T08:06:28.363Z,34.4700
2023-05-19T08:07:30.048Z,34.4969
2023-05-19T08:08:31.797Z,34.4931
2023-05-19T08:09:33.531Z,34.5015
2023-05-19T08:10:35.400Z,34.5046
2023-05-19T08:11:36.982Z,34.5369
2023-05-19T08:12:38.694Z,34.5177
2023-05-19T08:13:40.406Z,34.5292
2023-05-19T08:14:42.131Z,34.5369
2023-05-19T08:15:43.892Z,34.5477
2023-05-19T08:16:45.607Z,34.5438
2023-05-19T08:17:47.367Z,34.5415
2023-05-19T08:18:49.098Z,34.5462
2023-05-19T08:19:50.790Z,34.5446
2023-05-19T08:20:52.517Z,34.5415
2023-05-19T08:21:54.265Z,34.5531
2023-05-19T08:22:55.978Z,34.5469
2023-05-19T08:23:57.696Z,34.5477
2023-05-19T08:24:59.429Z,34.5346
2023-05-19T08:26:01.156Z,34.5385
2023-05-19T08:27:02.896Z,34.5423
2023-05-19T08:28:04.603Z,34.5623
2023-05-19T08:29:06.318Z,34.5562
2023-05-19T08:30:08.074Z,34.5592
2023-05-19T08:31:09.845Z,34.5731
2023-05-19T08:32:13.185Z,34.5777
2023-05-19T08:33:13.255Z,34.5900
2023-05-19T08:34:14.971Z,34.5946
2023-05-19T08:35:16.671Z,34.5931
2023-05-19T08:36:18.398Z,34.6077
2023-05-19T08:37:20.157Z,34.6262
2023-05-19T08:38:21.873Z,34.6477
2023-05-19T08:39:23.581Z,34.6477
2023-05-19T08:40:25.322Z,34.6738
2023-05-19T08:41:27.024Z,34.6762
2023-05-19T08:42:28.802Z,34.6854
2023-05-19T08:43:30.497Z,34.6862
2023-05-19T08:44:32.221Z,34.6692
2023-05-19T08:45:34.124Z,34.6492
2023-05-19T08:46:35.833Z,34.6685
2023-05-19T08:47:37.433Z,34.6962
2023-05-19T08:48:39.094Z,34.6892
2023-05-19T08:49:40.842Z,34.6762
2023-05-19T08:50:42.559Z,34.6769
2023-05-19T08:51:44.302Z,34.6738
2023-05-19T08:52:49.539Z,34.6823
2023-05-19T08:53:47.742Z,34.6777
2023-05-19T08:54:49.461Z,34.6908
2023-05-19T08:55:51.192Z,34.7000
2023-05-19T08:56:52.888Z,34.6954
2023-05-19T08:57:54.642Z,34.6892
2023-05-19T08:58:56.364Z,34.6838
2023-05-19T08:59:58.076Z,34.6823
2023-05-19T09:00:59.876Z,34.6969
2023-05-19T09:02:01.513Z,34.7062
2023-05-19T09:04:05.023Z,34.7169
2023-05-19T09:05:06.715Z,34.7246
2023-05-19T09:06:08.557Z,34.7846
2023-05-19T09:07:10.135Z,34.7900
2023-05-19T09:08:11.870Z,34.8015
2023-05-19T09:09:13.620Z,34.8146
2023-05-19T09:10:15.335Z,34.8138
2023-05-19T09:11:17.039Z,34.8300
2023-05-19T09:12:18.781Z,34.8377
2023-05-19T09:13:20.519Z,34.8392
2023-05-19T09:14:22.234Z,34.8300
2023-05-19T09:15:23.945Z,34.8246
2023-05-19T09:16:27.811Z,34.8462
2023-05-19T09:17:27.412Z,34.8554
2023-05-19T09:18:29.189Z,34.8538
2023-05-19T09:19:30.989Z,34.8662
2023-05-19T09:20:32.586Z,34.8731
2023-05-19T09:21:34.302Z,34.8762
2023-05-19T09:22:36.048Z,34.8900
2023-05-19T09:23:37.785Z,34.8762
2023-05-19T09:24:39.481Z,34.8831
2023-05-19T09:25:41.230Z,34.9100
2023-05-19T09:26:42.974Z,34.8946
2023-05-19T09:27:44.691Z,34.8908
2023-05-19T09:28:46.402Z,34.8954
2023-05-19T09:29:48.119Z,34.8862
2023-05-19T09:30:49.849Z,34.8892
2023-05-19T09:31:51.788Z,34.8800
2023-05-19T09:32:53.380Z,34.8869
2023-05-19T09:33:55.091Z,34.8931
2023-05-19T09:34:56.753Z,34.8908
2023-05-19T09:35:58.501Z,34.8838
2023-05-19T09:37:00.230Z,34.8746
2023-05-19T09:38:01.986Z,34.8862
2023-05-19T09:39:03.701Z,34.8992
2023-05-19T09:40:05.399Z,34.9046
2023-05-19T09:41:07.188Z,34.9131
2023-05-19T09:42:08.853Z,34.9308
2023-05-19T09:43:10.584Z,34.9323
2023-05-19T09:44:12.323Z,34.9331
2023-05-19T09:45:14.069Z,34.9115
2023-05-19T09:46:15.838Z,34.9169
2023-05-19T09:47:17.505Z,34.9415
2023-05-19T09:48:19.217Z,34.9285
2023-05-19T09:49:20.992Z,34.9231
2023-05-19T09:50:22.691Z,34.9162
2023-05-19T09:51:24.422Z,34.9377
2023-05-19T09:52:26.154Z,34.9438
2023-05-19T09:53:27.865Z,34.9531
2023-05-19T09:54:29.722Z,34.9700
2023-05-19T09:55:31.449Z,34.9823
2023-05-19T09:56:33.061Z,35.0208
2023-05-19T09:57:34.801Z,35.0331
2023-05-19T09:58:36.771Z,35.0577
2023-05-19T09:59:38.264Z,35.0885
2023-05-19T10:00:39.986Z,35.1123
2023-05-19T10:01:41.722Z,35.1415
2023-05-19T10:02:43.435Z,35.1546
2023-05-19T10:03:45.164Z,35.1792
2023-05-19T10:04:47.327Z,35.1777
2023-05-19T10:05:48.643Z,35.1638
2023-05-19T10:06:50.329Z,35.1523
2023-05-19T10:07:52.060Z,35.1385
2023-05-19T10:08:53.789Z,35.1600
2023-05-19T10:09:56.604Z,35.1723
2023-05-19T10:10:57.264Z,35.1631
2023-05-19T10:11:59.004Z,35.1531
2023-05-19T10:13:00.694Z,35.1431
2023-05-19T10:14:02.424Z,35.1431
2023-05-19T10:15:04.183Z,35.1392
2023-05-19T10:16:05.953Z,35.1377
2023-05-19T10:17:07.765Z,35.1346
2023-05-19T10:18:09.389Z,35.1546
2023-05-19T10:19:11.100Z,35.1869
2023-05-19T10:20:12.844Z,35.2346
2023-05-19T10:21:14.506Z,35.2585
2023-05-19T10:22:16.230Z,35.2585
2023-05-19T10:23:17.989Z,35.2469
2023-05-19T10:24:19.702Z,35.2531
2023-05-19T10:25:21.454Z,35.2692
2023-05-19T10:26:23.135Z,35.2769
2023-05-19T10:27:24.874Z,35.2938
2023-05-19T10:28:26.642Z,35.3092
2023-05-19T10:29:28.383Z,35.3069
2023-05-19T10:30:30.092Z,35.3146
2023-05-19T10:31:31.860Z,35.3100
2023-05-19T10:32:33.622Z,35.3215
2023-05-19T10:33:35.257Z,35.3600
2023-05-19T10:34:36.968Z,35.3662
2023-05-19T10:35:38.917Z,35.3731
2023-05-19T10:36:40.406Z,35.3808
2023-05-19T10:37:42.156Z,35.3800
2023-05-19T10:38:43.877Z,35.4023
2023-05-19T10:39:45.596Z,35.4292
2023-05-19T10:40:47.334Z,35.4215
2023-05-19T10:41:49.038Z,35.4531
2023-05-19T10:42:50.778Z,35.4854
2023-05-19T10:43:52.501Z,35.4908
2023-05-19T10:44:54.229Z,35.5062
2023-05-19T10:45:55.936Z,35.5162
2023-05-19T10:46:57.714Z,35.4954
2023-05-19T10:47:59.495Z,35.4869
2023-05-19T10:49:01.137Z,35.4731
2023-05-19T10:50:02.872Z,35.4500
2023-05-19T10:51:04.607Z,35.4485
2023-05-19T10:52:06.303Z,35.4400
2023-05-19T10:53:08.036Z,35.4492
2023-05-19T10:54:10.992Z,35.4523
2023-05-19T10:55:11.504Z,35.4469
2023-05-19T10:56:13.235Z,35.4262
2023-05-19T10:57:14.919Z,35.4177
2023-05-19T10:58:16.656Z,35.4123
2023-05-19T10:59:18.376Z,35.3900
2023-05-19T11:00:20.123Z,35.4062
2023-05-19T11:01:21.866Z,35.4292
2023-05-19T11:02:23.640Z,35.4577
2023-05-19T11:03:25.262Z,35.4577
2023-05-19T11:04:27.163Z,35.4431
2023-05-19T11:05:28.729Z,35.4054
2023-05-19T11:06:30.486Z,35.3746
2023-05-19T11:07:32.203Z,35.3538
2023-05-19T11:08:33.926Z,35.3754
2023-05-19T11:09:40.275Z,35.3692
2023-05-19T11:12:38.933Z,35.4058
2023-05-19T11:13:40.575Z,35.4315
2023-05-19T11:14:42.276Z,35.4462
2023-05-19T11:15:44.081Z,35.4531
2023-05-19T11:16:46.723Z,35.4592
2023-05-19T11:17:47.526Z,35.4938
2023-05-19T11:18:49.253Z,35.5208
2023-05-19T11:19:50.928Z,35.5608
2023-05-19T11:20:52.757Z,35.5831
2023-05-19T11:21:54.401Z,35.6085
2023-05-19T11:22:56.192Z,35.6708
2023-05-19T11:23:57.963Z,35.7038
2023-05-19T11:24:59.565Z,35.7123
2023-05-19T11:26:01.293Z,35.7123
2023-05-19T11:27:03.133Z,35.7392
2023-05-19T11:28:04.779Z,35.7615
2023-05-19T11:29:06.474Z,35.7808
2023-05-19T11:30:08.254Z,35.7615
2023-05-19T11:31:09.953Z,35.7538
2023-05-19T11:32:11.755Z,35.7515
2023-05-19T11:33:13.483Z,35.7469
2023-05-19T11:34:15.112Z,35.7654
2023-05-19T11:35:16.842Z,35.7438
2023-05-19T11:36:18.612Z,35.7600
2023-05-19T11:37:20.302Z,35.7846
2023-05-19T11:38:22.130Z,35.7623
2023-05-19T11:39:23.782Z,35.7662
2023-05-19T11:40:25.520Z,35.7500
2023-05-19T11:41:27.243Z,35.7508
2023-05-19T11:42:28.966Z,35.7477
2023-05-19T11:43:30.712Z,35.7323
2023-05-19T11:44:32.522Z,35.7200
2023-05-19T11:45:34.416Z,35.7131
2023-05-19T11:46:35.969Z,35.7108
2023-05-19T11:47:50.852Z,35.7246
2023-05-19T11:48:39.368Z,35.7362
2023-05-19T11:49:41.053Z,35.7485
2023-05-19T11:50:42.856Z,35.7362
2023-05-19T11:51:44.500Z,35.7546
2023-05-19T11:52:46.252Z,35.7762
2023-05-19T11:53:47.980Z,35.7731
2023-05-19T11:54:49.716Z,35.7685
2023-05-19T11:55:52.024Z,35.7938
2023-05-19T11:56:53.258Z,35.7946
2023-05-19T11:58:02.768Z,35.8038
2023-05-19T11:58:56.647Z,35.8400
2023-05-19T11:59:58.376Z,35.8762
2023-05-19T12:01:00.121Z,35.8738
2023-05-19T12:02:01.808Z,35.8492
2023-05-19T12:03:03.674Z,35.8338
2023-05-19T12:04:05.413Z,35.8377
2023-05-19T12:05:07.057Z,35.8392
2023-05-19T12:06:08.755Z,35.8308
2023-05-19T12:07:10.470Z,35.8108
2023-05-19T12:08:12.277Z,35.8269
2023-05-19T12:09:14.028Z,35.8285
2023-05-19T12:10:15.642Z,35.8208
2023-05-19T12:11:18.216Z,35.8408
2023-05-19T12:14:16.080Z,35.8775
2023-05-19T12:15:17.704Z,35.8954
2023-05-19T12:16:19.455Z,35.9115
2023-05-19T12:17:21.271Z,35.9269
2023-05-19T12:18:22.917Z,35.9408
2023-05-19T12:19:24.693Z,35.9638
2023-05-19T12:20:26.372Z,35.9931
2023-05-19T12:21:34.011Z,36.0169
2023-05-19T12:24:31.372Z,36.0783
2023-05-19T12:25:33.186Z,36.0638
2023-05-19T12:26:34.706Z,36.0831
2023-05-19T12:27:36.513Z,36.0923
2023-05-19T12:28:38.167Z,36.0954
2023-05-19T12:29:39.884Z,36.0808
2023-05-19T12:30:41.638Z,36.0946
2023-05-19T12:31:43.431Z,36.1077
2023-05-19T12:32:45.225Z,36.1285
2023-05-19T12:33:46.830Z,36.1431